sensor_id;sensor_type;location;lat;lon;timestamp;P1;durP1;ratioP1;P2;durP2;ratioP2
13331;SDS011;6735;51.456;12.626;2023-05-07T00:01:07;14.17;;;12.77;;
13331;SDS011;6735;51.456;12.626;2023-05-07T00:03:32;15.07;;;13.73;;
13331;SDS011;6735;51.456;12.626;2023-05-07T00:05:58;15.03;;;13.67;;
13331;SDS011;6735;51.456;12.626;2023-05-07T00:08:23;15.03;;;13.63;;
13331;SDS011;6735;51.456;12.626;2023-05-07T00:10:49;15.93;;;14.33;;
13331;SDS011;6735;51.456;12.626;2023-05-07T00:13:14;16.27;;;14.77;;
13331;SDS011;6735;51.456;12.626;2023-05-07T00:15:40;17.30;;;15.70;;
13331;SDS011;6735;51.456;12.626;2023-05-07T00:18:06;17.07;;;15.30;;
13331;SDS011;6735;51.456;12.626;2023-05-07T00:20:31;17.20;;;15.50;;
13331;SDS011;6735;51.456;12.626;2023-05-07T00:22:57;17.53;;;15.73;;
13331;SDS011;6735;51.456;12.626;2023-05-07T00:25:22;18.33;;;16.63;;
13331;SDS011;6735;51.456;12.626;2023-05-07T00:27:48;17.97;;;16.37;;
13331;SDS011;6735;51.456;12.626;2023-05-07T00:30:13;18.97;;;17.20;;
13331;SDS011;6735;51.456;12.626;2023-05-07T00:32:39;18.93;;;17.30;;
13331;SDS011;6735;51.456;12.626;2023-05-07T00:35:05;19.60;;;17.83;;
13331;SDS011;6735;51.456;12.626;2023-05-07T00:37:31;19.27;;;17.57;;
13331;SDS011;6735;51.456;12.626;2023-05-07T00:39:56;18.73;;;16.90;;
13331;SDS011;6735;51.456;12.626;2023-05-07T00:42:22;18.23;;;16.60;;
13331;SDS011;6735;51.456;12.626;2023-05-07T00:44:48;18.70;;;17.00;;
13331;SDS011;6735;51.456;12.626;2023-05-07T00:47:14;17.83;;;16.23;;
13331;SDS011;6735;51.456;12.626;2023-05-07T00:49:44;18.33;;;16.70;;
13331;SDS011;6735;51.456;12.626;2023-05-07T00:52:14;19.53;;;17.63;;
13331;SDS011;6735;51.456;12.626;2023-05-07T00:54:41;18.23;;;16.60;;
13331;SDS011;6735;51.456;12.626;2023-05-07T00:57:07;19.47;;;17.57;;
13331;SDS011;6735;51.456;12.626;2023-05-07T00:59:34;19.57;;;17.67;;
13331;SDS011;6735;51.456;12.626;2023-05-07T01:02:00;19.93;;;18.13;;
13331;SDS011;6735;51.456;12.626;2023-05-07T01:04:26;21.13;;;19.07;;
13331;SDS011;6735;51.456;12.626;2023-05-07T01:06:51;20.33;;;18.33;;
13331;SDS011;6735;51.456;12.626;2023-05-07T01:09:20;19.53;;;17.83;;
13331;SDS011;6735;51.456;12.626;2023-05-07T01:11:47;19.77;;;18.07;;
13331;SDS011;6735;51.456;12.626;2023-05-07T01:14:14;20.53;;;18.83;;
13331;SDS011;6735;51.456;12.626;2023-05-07T01:16:39;19.97;;;18.17;;
13331;SDS011;6735;51.456;12.626;2023-05-07T01:19:06;19.90;;;17.93;;
13331;SDS011;6735;51.456;12.626;2023-05-07T01:21:33;19.83;;;18.13;;
13331;SDS011;6735;51.456;12.626;2023-05-07T01:24:02;19.57;;;17.77;;
13331;SDS011;6735;51.456;12.626;2023-05-07T01:26:27;19.90;;;18.10;;
13331;SDS011;6735;51.456;12.626;2023-05-07T01:28:53;19.47;;;17.67;;
13331;SDS011;6735;51.456;12.626;2023-05-07T01:31:18;20.57;;;18.77;;
13331;SDS011;6735;51.456;12.626;2023-05-07T01:33:44;20.00;;;18.20;;
13331;SDS011;6735;51.456;12.626;2023-05-07T01:36:13;20.07;;;18.17;;
13331;SDS011;6735;51.456;12.626;2023-05-07T01:38:39;20.47;;;18.67;;
13331;SDS011;6735;51.456;12.626;2023-05-07T01:41:06;19.87;;;18.00;;
13331;SDS011;6735;51.456;12.626;2023-05-07T01:43:31;19.00;;;17.40;;
13331;SDS011;6735;51.456;12.626;2023-05-07T01:45:58;19.70;;;17.87;;
13331;SDS011;6735;51.456;12.626;2023-05-07T01:48:24;20.27;;;18.47;;
13331;SDS011;6735;51.456;12.626;2023-05-07T01:50:50;20.10;;;18.30;;
13331;SDS011;6735;51.456;12.626;2023-05-07T01:53:17;20.43;;;18.73;;
13331;SDS011;6735;51.456;12.626;2023-05-07T01:55:42;20.33;;;18.43;;
13331;SDS011;6735;51.456;12.626;2023-05-07T01:58:08;20.40;;;18.50;;
13331;SDS011;6735;51.456;12.626;2023-05-07T02:00:33;21.97;;;19.97;;
13331;SDS011;6735;51.456;12.626;2023-05-07T02:02:59;21.13;;;19.23;;
13331;SDS011;6735;51.456;12.626;2023-05-07T02:05:24;20.87;;;18.93;;
13331;SDS011;6735;51.456;12.626;2023-05-07T02:07:50;20.83;;;19.03;;
13331;SDS011;6735;51.456;12.626;2023-05-07T02:10:15;20.73;;;18.83;;
13331;SDS011;6735;51.456;12.626;2023-05-07T02:12:41;21.63;;;19.63;;
13331;SDS011;6735;51.456;12.626;2023-05-07T02:15:07;21.73;;;19.67;;
13331;SDS011;6735;51.456;12.626;2023-05-07T02:17:33;21.47;;;19.50;;
13331;SDS011;6735;51.456;12.626;2023-05-07T02:19:58;19.63;;;17.83;;
13331;SDS011;6735;51.456;12.626;2023-05-07T02:22:24;20.80;;;18.90;;
13331;SDS011;6735;51.456;12.626;2023-05-07T02:24:50;22.00;;;19.80;;
13331;SDS011;6735;51.456;12.626;2023-05-07T02:27:16;20.90;;;18.80;;
13331;SDS011;6735;51.456;12.626;2023-05-07T02:29:41;22.80;;;20.50;;
13331;SDS011;6735;51.456;12.626;2023-05-07T02:32:07;21.10;;;19.00;;
13331;SDS011;6735;51.456;12.626;2023-05-07T02:34:32;21.30;;;19.20;;
13331;SDS011;6735;51.456;12.626;2023-05-07T02:36:58;22.70;;;20.50;;
13331;SDS011;6735;51.456;12.626;2023-05-07T02:39:23;21.10;;;19.20;;
13331;SDS011;6735;51.456;12.626;2023-05-07T02:41:49;21.77;;;19.47;;
13331;SDS011;6735;51.456;12.626;2023-05-07T02:44:14;21.40;;;19.40;;
13331;SDS011;6735;51.456;12.626;2023-05-07T02:46:40;22.23;;;20.13;;
13331;SDS011;6735;51.456;12.626;2023-05-07T02:49:05;22.13;;;19.93;;
13331;SDS011;6735;51.456;12.626;2023-05-07T02:51:31;22.07;;;19.97;;
13331;SDS011;6735;51.456;12.626;2023-05-07T02:53:56;23.47;;;20.10;;
13331;SDS011;6735;51.456;12.626;2023-05-07T02:56:22;22.83;;;20.57;;
13331;SDS011;6735;51.456;12.626;2023-05-07T02:58:47;22.53;;;20.23;;
13331;SDS011;6735;51.456;12.626;2023-05-07T03:01:13;22.20;;;20.00;;
13331;SDS011;6735;51.456;12.626;2023-05-07T03:03:38;23.13;;;20.93;;
13331;SDS011;6735;51.456;12.626;2023-05-07T03:06:04;22.80;;;20.57;;
13331;SDS011;6735;51.456;12.626;2023-05-07T03:08:31;23.43;;;20.97;;
13331;SDS011;6735;51.456;12.626;2023-05-07T03:10:57;24.03;;;21.53;;
13331;SDS011;6735;51.456;12.626;2023-05-07T03:13:22;22.90;;;20.63;;
13331;SDS011;6735;51.456;12.626;2023-05-07T03:15:48;24.83;;;22.33;;
13331;SDS011;6735;51.456;12.626;2023-05-07T03:18:13;24.17;;;21.77;;
13331;SDS011;6735;51.456;12.626;2023-05-07T03:20:39;25.13;;;22.63;;
13331;SDS011;6735;51.456;12.626;2023-05-07T03:23:04;24.10;;;21.53;;
13331;SDS011;6735;51.456;12.626;2023-05-07T03:25:30;24.07;;;21.67;;
13331;SDS011;6735;51.456;12.626;2023-05-07T03:27:56;23.70;;;21.40;;
13331;SDS011;6735;51.456;12.626;2023-05-07T03:30:22;23.50;;;21.10;;
13331;SDS011;6735;51.456;12.626;2023-05-07T03:32:47;22.73;;;20.47;;
13331;SDS011;6735;51.456;12.626;2023-05-07T03:35:13;22.00;;;19.70;;
13331;SDS011;6735;51.456;12.626;2023-05-07T03:37:39;22.23;;;20.10;;
13331;SDS011;6735;51.456;12.626;2023-05-07T03:40:05;20.53;;;18.53;;
13331;SDS011;6735;51.456;12.626;2023-05-07T03:42:32;21.17;;;19.10;;
13331;SDS011;6735;51.456;12.626;2023-05-07T03:44:57;21.27;;;19.23;;
13331;SDS011;6735;51.456;12.626;2023-05-07T03:47:23;20.83;;;18.83;;
13331;SDS011;6735;51.456;12.626;2023-05-07T03:49:48;20.73;;;18.70;;
13331;SDS011;6735;51.456;12.626;2023-05-07T03:52:15;21.60;;;19.47;;
13331;SDS011;6735;51.456;12.626;2023-05-07T03:54:40;21.53;;;19.43;;
13331;SDS011;6735;51.456;12.626;2023-05-07T03:57:06;22.20;;;20.00;;
13331;SDS011;6735;51.456;12.626;2023-05-07T03:59:31;22.13;;;20.03;;
13331;SDS011;6735;51.456;12.626;2023-05-07T04:01:57;21.17;;;19.10;;
13331;SDS011;6735;51.456;12.626;2023-05-07T04:04:23;22.40;;;20.33;;
13331;SDS011;6735;51.456;12.626;2023-05-07T04:06:48;21.67;;;19.67;;
13331;SDS011;6735;51.456;12.626;2023-05-07T04:09:14;23.47;;;21.23;;
13331;SDS011;6735;51.456;12.626;2023-05-07T04:11:39;21.47;;;19.43;;
13331;SDS011;6735;51.456;12.626;2023-05-07T04:14:05;22.33;;;20.13;;
13331;SDS011;6735;51.456;12.626;2023-05-07T04:16:31;23.20;;;20.73;;
13331;SDS011;6735;51.456;12.626;2023-05-07T04:18:56;21.90;;;19.80;;
13331;SDS011;6735;51.456;12.626;2023-05-07T04:21:22;21.70;;;19.70;;
13331;SDS011;6735;51.456;12.626;2023-05-07T04:23:47;21.57;;;19.53;;
13331;SDS011;6735;51.456;12.626;2023-05-07T04:26:13;22.53;;;20.27;;
13331;SDS011;6735;51.456;12.626;2023-05-07T04:28:40;20.70;;;18.83;;
13331;SDS011;6735;51.456;12.626;2023-05-07T04:31:05;19.70;;;17.80;;
13331;SDS011;6735;51.456;12.626;2023-05-07T04:33:31;20.00;;;18.10;;
13331;SDS011;6735;51.456;12.626;2023-05-07T04:35:57;19.80;;;17.90;;
13331;SDS011;6735;51.456;12.626;2023-05-07T04:38:27;18.63;;;16.83;;
13331;SDS011;6735;51.456;12.626;2023-05-07T04:40:56;18.57;;;16.77;;
13331;SDS011;6735;51.456;12.626;2023-05-07T04:43:23;18.47;;;16.70;;
13331;SDS011;6735;51.456;12.626;2023-05-07T04:45:51;17.70;;;15.93;;
13331;SDS011;6735;51.456;12.626;2023-05-07T04:48:17;17.77;;;16.00;;
13331;SDS011;6735;51.456;12.626;2023-05-07T04:50:46;18.37;;;16.47;;
13331;SDS011;6735;51.456;12.626;2023-05-07T04:53:12;17.43;;;15.80;;
13331;SDS011;6735;51.456;12.626;2023-05-07T04:55:38;16.73;;;15.23;;
13331;SDS011;6735;51.456;12.626;2023-05-07T04:58:03;16.97;;;15.33;;
13331;SDS011;6735;51.456;12.626;2023-05-07T05:00:29;16.93;;;15.33;;
13331;SDS011;6735;51.456;12.626;2023-05-07T05:02:55;16.67;;;15.20;;
13331;SDS011;6735;51.456;12.626;2023-05-07T05:05:20;15.87;;;14.33;;
13331;SDS011;6735;51.456;12.626;2023-05-07T05:07:46;16.03;;;14.53;;
13331;SDS011;6735;51.456;12.626;2023-05-07T05:10:11;15.70;;;14.13;;
13331;SDS011;6735;51.456;12.626;2023-05-07T05:12:37;15.80;;;14.30;;
13331;SDS011;6735;51.456;12.626;2023-05-07T05:15:03;15.50;;;14.00;;
13331;SDS011;6735;51.456;12.626;2023-05-07T05:17:29;15.00;;;13.53;;
13331;SDS011;6735;51.456;12.626;2023-05-07T05:19:54;14.33;;;13.03;;
13331;SDS011;6735;51.456;12.626;2023-05-07T05:22:20;14.03;;;12.73;;
13331;SDS011;6735;51.456;12.626;2023-05-07T05:24:45;13.83;;;12.53;;
13331;SDS011;6735;51.456;12.626;2023-05-07T05:27:11;14.27;;;13.03;;
13331;SDS011;6735;51.456;12.626;2023-05-07T05:29:36;14.43;;;13.20;;
13331;SDS011;6735;51.456;12.626;2023-05-07T05:32:02;14.57;;;13.30;;
13331;SDS011;6735;51.456;12.626;2023-05-07T05:34:27;14.17;;;12.87;;
13331;SDS011;6735;51.456;12.626;2023-05-07T05:36:53;14.13;;;12.93;;
13331;SDS011;6735;51.456;12.626;2023-05-07T05:39:18;13.97;;;12.73;;
13331;SDS011;6735;51.456;12.626;2023-05-07T05:41:44;14.17;;;12.97;;
13331;SDS011;6735;51.456;12.626;2023-05-07T05:44:09;14.63;;;13.33;;
13331;SDS011;6735;51.456;12.626;2023-05-07T05:46:35;14.20;;;12.80;;
13331;SDS011;6735;51.456;12.626;2023-05-07T05:49:00;14.47;;;13.17;;
13331;SDS011;6735;51.456;12.626;2023-05-07T05:51:26;14.50;;;13.27;;
13331;SDS011;6735;51.456;12.626;2023-05-07T05:53:51;14.63;;;13.23;;
13331;SDS011;6735;51.456;12.626;2023-05-07T05:56:17;14.90;;;13.57;;
13331;SDS011;6735;51.456;12.626;2023-05-07T05:58:42;14.83;;;13.37;;
13331;SDS011;6735;51.456;12.626;2023-05-07T06:01:08;13.13;;;11.90;;
13331;SDS011;6735;51.456;12.626;2023-05-07T06:03:33;13.73;;;12.50;;
13331;SDS011;6735;51.456;12.626;2023-05-07T06:05:59;13.13;;;11.93;;
13331;SDS011;6735;51.456;12.626;2023-05-07T06:08:25;12.77;;;11.60;;
13331;SDS011;6735;51.456;12.626;2023-05-07T06:10:54;11.57;;;10.57;;
13331;SDS011;6735;51.456;12.626;2023-05-07T06:13:19;11.60;;;10.60;;
13331;SDS011;6735;51.456;12.626;2023-05-07T06:15:45;11.87;;;10.77;;
13331;SDS011;6735;51.456;12.626;2023-05-07T06:18:10;11.77;;;10.77;;
13331;SDS011;6735;51.456;12.626;2023-05-07T06:20:36;10.63;;;9.73;;
13331;SDS011;6735;51.456;12.626;2023-05-07T06:23:01;10.70;;;9.73;;
13331;SDS011;6735;51.456;12.626;2023-05-07T06:25:27;11.67;;;10.73;;
13331;SDS011;6735;51.456;12.626;2023-05-07T06:27:52;11.47;;;10.47;;
13331;SDS011;6735;51.456;12.626;2023-05-07T06:30:18;11.90;;;10.93;;
13331;SDS011;6735;51.456;12.626;2023-05-07T06:32:43;11.70;;;10.70;;
13331;SDS011;6735;51.456;12.626;2023-05-07T06:35:09;11.10;;;10.20;;
13331;SDS011;6735;51.456;12.626;2023-05-07T06:37:34;9.47;;;8.77;;
13331;SDS011;6735;51.456;12.626;2023-05-07T06:40:00;10.00;;;9.20;;
13331;SDS011;6735;51.456;12.626;2023-05-07T06:42:25;10.33;;;9.30;;
13331;SDS011;6735;51.456;12.626;2023-05-07T06:44:51;9.60;;;8.80;;
13331;SDS011;6735;51.456;12.626;2023-05-07T06:47:17;9.30;;;8.50;;
13331;SDS011;6735;51.456;12.626;2023-05-07T06:49:42;11.03;;;10.03;;
13331;SDS011;6735;51.456;12.626;2023-05-07T06:52:08;9.97;;;9.17;;
13331;SDS011;6735;51.456;12.626;2023-05-07T06:54:33;8.60;;;7.90;;
13331;SDS011;6735;51.456;12.626;2023-05-07T06:56:59;8.37;;;7.57;;
13331;SDS011;6735;51.456;12.626;2023-05-07T06:59:24;8.03;;;7.40;;
13331;SDS011;6735;51.456;12.626;2023-05-07T07:01:50;8.40;;;7.70;;
13331;SDS011;6735;51.456;12.626;2023-05-07T07:04:15;8.27;;;7.57;;
13331;SDS011;6735;51.456;12.626;2023-05-07T07:06:41;8.90;;;8.20;;
13331;SDS011;6735;51.456;12.626;2023-05-07T07:09:06;8.57;;;7.90;;
13331;SDS011;6735;51.456;12.626;2023-05-07T07:11:31;7.83;;;7.23;;
13331;SDS011;6735;51.456;12.626;2023-05-07T07:13:57;8.10;;;7.50;;
13331;SDS011;6735;51.456;12.626;2023-05-07T07:16:23;8.70;;;7.90;;
13331;SDS011;6735;51.456;12.626;2023-05-07T07:18:49;7.90;;;7.30;;
13331;SDS011;6735;51.456;12.626;2023-05-07T07:21:14;8.80;;;8.10;;
13331;SDS011;6735;51.456;12.626;2023-05-07T07:23:40;8.90;;;8.10;;
13331;SDS011;6735;51.456;12.626;2023-05-07T07:26:05;9.00;;;8.20;;
13331;SDS011;6735;51.456;12.626;2023-05-07T07:28:31;8.73;;;8.03;;
13331;SDS011;6735;51.456;12.626;2023-05-07T07:30:57;8.87;;;8.17;;
13331;SDS011;6735;51.456;12.626;2023-05-07T07:33:22;9.70;;;8.60;;
13331;SDS011;6735;51.456;12.626;2023-05-07T07:35:48;10.40;;;9.40;;
13331;SDS011;6735;51.456;12.626;2023-05-07T07:38:13;10.07;;;9.27;;
13331;SDS011;6735;51.456;12.626;2023-05-07T07:40:38;11.70;;;9.30;;
13331;SDS011;6735;51.456;12.626;2023-05-07T07:43:04;10.30;;;9.47;;
13331;SDS011;6735;51.456;12.626;2023-05-07T07:45:30;11.07;;;10.07;;
13331;SDS011;6735;51.456;12.626;2023-05-07T07:47:56;10.97;;;10.07;;
13331;SDS011;6735;51.456;12.626;2023-05-07T07:50:21;10.97;;;9.97;;
13331;SDS011;6735;51.456;12.626;2023-05-07T07:52:48;10.47;;;9.67;;
13331;SDS011;6735;51.456;12.626;2023-05-07T07:55:13;11.83;;;10.83;;
13331;SDS011;6735;51.456;12.626;2023-05-07T07:57:42;12.47;;;11.43;;
13331;SDS011;6735;51.456;12.626;2023-05-07T08:00:08;12.43;;;11.43;;
13331;SDS011;6735;51.456;12.626;2023-05-07T08:02:34;13.67;;;12.47;;
13331;SDS011;6735;51.456;12.626;2023-05-07T08:04:59;13.07;;;11.77;;
13331;SDS011;6735;51.456;12.626;2023-05-07T08:07:25;12.47;;;11.37;;
13331;SDS011;6735;51.456;12.626;2023-05-07T08:09:50;12.63;;;11.53;;
13331;SDS011;6735;51.456;12.626;2023-05-07T08:12:16;12.30;;;11.20;;
13331;SDS011;6735;51.456;12.626;2023-05-07T08:14:41;12.60;;;11.50;;
13331;SDS011;6735;51.456;12.626;2023-05-07T08:17:07;12.10;;;11.10;;
13331;SDS011;6735;51.456;12.626;2023-05-07T08:19:34;12.90;;;11.80;;
13331;SDS011;6735;51.456;12.626;2023-05-07T08:22:00;13.60;;;12.40;;
13331;SDS011;6735;51.456;12.626;2023-05-07T08:24:25;13.27;;;12.13;;
13331;SDS011;6735;51.456;12.626;2023-05-07T08:26:51;13.50;;;12.30;;
13331;SDS011;6735;51.456;12.626;2023-05-07T08:29:16;13.57;;;12.27;;
13331;SDS011;6735;51.456;12.626;2023-05-07T08:31:42;12.40;;;11.40;;
13331;SDS011;6735;51.456;12.626;2023-05-07T08:34:07;11.57;;;10.57;;
13331;SDS011;6735;51.456;12.626;2023-05-07T08:36:33;13.30;;;11.90;;
13331;SDS011;6735;51.456;12.626;2023-05-07T08:38:59;11.87;;;10.87;;
13331;SDS011;6735;51.456;12.626;2023-05-07T08:41:24;11.80;;;10.80;;
13331;SDS011;6735;51.456;12.626;2023-05-07T08:43:50;11.90;;;10.90;;
13331;SDS011;6735;51.456;12.626;2023-05-07T08:46:17;12.20;;;11.03;;
13331;SDS011;6735;51.456;12.626;2023-05-07T08:48:44;12.70;;;11.60;;
13331;SDS011;6735;51.456;12.626;2023-05-07T08:51:13;12.80;;;11.60;;
13331;SDS011;6735;51.456;12.626;2023-05-07T08:53:40;12.63;;;11.53;;
13331;SDS011;6735;51.456;12.626;2023-05-07T08:56:07;13.47;;;12.17;;
13331;SDS011;6735;51.456;12.626;2023-05-07T08:58:33;13.03;;;11.93;;
13331;SDS011;6735;51.456;12.626;2023-05-07T09:01:00;13.13;;;11.77;;
13331;SDS011;6735;51.456;12.626;2023-05-07T09:03:31;12.77;;;11.57;;
13331;SDS011;6735;51.456;12.626;2023-05-07T09:05:57;12.90;;;11.70;;
13331;SDS011;6735;51.456;12.626;2023-05-07T09:08:24;13.03;;;11.93;;
13331;SDS011;6735;51.456;12.626;2023-05-07T09:10:51;14.10;;;12.80;;
13331;SDS011;6735;51.456;12.626;2023-05-07T09:13:17;13.67;;;12.57;;
13331;SDS011;6735;51.456;12.626;2023-05-07T09:15:43;13.40;;;12.20;;
13331;SDS011;6735;51.456;12.626;2023-05-07T09:18:08;13.60;;;12.40;;
13331;SDS011;6735;51.456;12.626;2023-05-07T09:20:36;12.47;;;11.47;;
13331;SDS011;6735;51.456;12.626;2023-05-07T09:23:02;12.87;;;11.70;;
13331;SDS011;6735;51.456;12.626;2023-05-07T09:25:32;12.73;;;11.53;;
13331;SDS011;6735;51.456;12.626;2023-05-07T09:27:59;12.27;;;11.07;;
13331;SDS011;6735;51.456;12.626;2023-05-07T09:30:31;11.87;;;10.87;;
13331;SDS011;6735;51.456;12.626;2023-05-07T09:32:57;12.83;;;11.67;;
13331;SDS011;6735;51.456;12.626;2023-05-07T09:35:24;12.67;;;11.60;;
13331;SDS011;6735;51.456;12.626;2023-05-07T09:37:52;12.07;;;10.97;;
13331;SDS011;6735;51.456;12.626;2023-05-07T09:40:22;12.27;;;11.07;;
13331;SDS011;6735;51.456;12.626;2023-05-07T09:42:48;9.73;;;8.93;;
13331;SDS011;6735;51.456;12.626;2023-05-07T09:45:14;9.20;;;8.40;;
13331;SDS011;6735;51.456;12.626;2023-05-07T09:47:43;9.23;;;8.33;;
13331;SDS011;6735;51.456;12.626;2023-05-07T09:50:10;9.57;;;8.80;;
13331;SDS011;6735;51.456;12.626;2023-05-07T09:52:37;9.67;;;8.97;;
13331;SDS011;6735;51.456;12.626;2023-05-07T09:55:05;9.93;;;9.23;;
13331;SDS011;6735;51.456;12.626;2023-05-07T09:57:32;10.20;;;9.40;;
13331;SDS011;6735;51.456;12.626;2023-05-07T09:59:58;12.40;;;11.37;;
13331;SDS011;6735;51.456;12.626;2023-05-07T10:02:27;10.77;;;9.97;;
13331;SDS011;6735;51.456;12.626;2023-05-07T10:04:56;12.17;;;11.07;;
13331;SDS011;6735;51.456;12.626;2023-05-07T10:07:25;11.67;;;10.77;;
13331;SDS011;6735;51.456;12.626;2023-05-07T10:09:51;12.70;;;11.57;;
13331;SDS011;6735;51.456;12.626;2023-05-07T10:12:17;11.70;;;10.80;;
13331;SDS011;6735;51.456;12.626;2023-05-07T10:14:43;12.73;;;11.70;;
13331;SDS011;6735;51.456;12.626;2023-05-07T10:17:11;12.13;;;11.13;;
13331;SDS011;6735;51.456;12.626;2023-05-07T10:19:37;12.87;;;11.77;;
13331;SDS011;6735;51.456;12.626;2023-05-07T10:22:04;12.00;;;11.00;;
13331;SDS011;6735;51.456;12.626;2023-05-07T10:24:34;11.77;;;10.83;;
13331;SDS011;6735;51.456;12.626;2023-05-07T10:27:02;11.33;;;10.43;;
13331;SDS011;6735;51.456;12.626;2023-05-07T10:29:39;11.63;;;10.73;;
13331;SDS011;6735;51.456;12.626;2023-05-07T10:35:06;11.63;;;10.57;;
13331;SDS011;6735;51.456;12.626;2023-05-07T10:37:40;11.97;;;10.77;;
13331;SDS011;6735;51.456;12.626;2023-05-07T10:40:06;10.50;;;9.70;;
13331;SDS011;6735;51.456;12.626;2023-05-07T10:42:33;10.07;;;9.30;;
13331;SDS011;6735;51.456;12.626;2023-05-07T10:45:10;11.07;;;10.10;;
13331;SDS011;6735;51.456;12.626;2023-05-07T10:47:53;9.93;;;9.13;;
13331;SDS011;6735;51.456;12.626;2023-05-07T10:50:29;9.60;;;8.90;;
13331;SDS011;6735;51.456;12.626;2023-05-07T10:55:42;9.43;;;8.63;;
13331;SDS011;6735;51.456;12.626;2023-05-07T11:00:46;8.80;;;8.10;;
13331;SDS011;6735;51.456;12.626;2023-05-07T11:03:15;8.70;;;8.00;;
13331;SDS011;6735;51.456;12.626;2023-05-07T11:05:41;7.90;;;7.30;;
13331;SDS011;6735;51.456;12.626;2023-05-07T11:08:07;9.80;;;8.83;;
13331;SDS011;6735;51.456;12.626;2023-05-07T11:10:52;9.17;;;8.47;;
13331;SDS011;6735;51.456;12.626;2023-05-07T11:13:40;9.00;;;8.30;;
13331;SDS011;6735;51.456;12.626;2023-05-07T11:16:20;8.93;;;8.07;;
13331;SDS011;6735;51.456;12.626;2023-05-07T11:18:55;9.57;;;8.80;;
13331;SDS011;6735;51.456;12.626;2023-05-07T11:24:02;11.67;;;10.67;;
13331;SDS011;6735;51.456;12.626;2023-05-07T11:26:30;12.67;;;11.47;;
13331;SDS011;6735;51.456;12.626;2023-05-07T11:29:09;12.20;;;11.20;;
13331;SDS011;6735;51.456;12.626;2023-05-07T11:31:36;11.13;;;10.23;;
13331;SDS011;6735;51.456;12.626;2023-05-07T11:34:02;10.50;;;9.67;;
13331;SDS011;6735;51.456;12.626;2023-05-07T11:36:30;10.73;;;9.83;;
13331;SDS011;6735;51.456;12.626;2023-05-07T11:38:57;10.20;;;9.40;;
13331;SDS011;6735;51.456;12.626;2023-05-07T11:41:22;10.00;;;9.20;;
13331;SDS011;6735;51.456;12.626;2023-05-07T11:43:58;10.70;;;9.90;;
13331;SDS011;6735;51.456;12.626;2023-05-07T11:46:24;11.97;;;10.97;;
13331;SDS011;6735;51.456;12.626;2023-05-07T11:48:50;11.40;;;10.40;;
13331;SDS011;6735;51.456;12.626;2023-05-07T11:51:19;10.63;;;9.73;;
13331;SDS011;6735;51.456;12.626;2023-05-07T11:53:46;10.10;;;9.30;;
13331;SDS011;6735;51.456;12.626;2023-05-07T11:56:12;8.97;;;8.27;;
13331;SDS011;6735;51.456;12.626;2023-05-07T11:58:39;8.23;;;7.63;;
13331;SDS011;6735;51.456;12.626;2023-05-07T12:01:07;7.73;;;7.03;;
13331;SDS011;6735;51.456;12.626;2023-05-07T12:03:37;7.90;;;7.30;;
13331;SDS011;6735;51.456;12.626;2023-05-07T12:06:07;7.63;;;7.00;;
13331;SDS011;6735;51.456;12.626;2023-05-07T12:08:36;7.37;;;6.77;;
13331;SDS011;6735;51.456;12.626;2023-05-07T12:11:03;7.63;;;7.00;;
13331;SDS011;6735;51.456;12.626;2023-05-07T12:13:31;7.17;;;6.57;;
13331;SDS011;6735;51.456;12.626;2023-05-07T12:15:57;6.97;;;6.47;;
13331;SDS011;6735;51.456;12.626;2023-05-07T12:18:22;7.00;;;6.50;;
13331;SDS011;6735;51.456;12.626;2023-05-07T12:20:49;7.40;;;6.80;;
13331;SDS011;6735;51.456;12.626;2023-05-07T12:23:15;7.00;;;6.40;;
13331;SDS011;6735;51.456;12.626;2023-05-07T12:25:41;6.53;;;5.93;;
13331;SDS011;6735;51.456;12.626;2023-05-07T12:28:15;6.20;;;5.53;;
13331;SDS011;6735;51.456;12.626;2023-05-07T12:30:45;5.97;;;5.47;;
13331;SDS011;6735;51.456;12.626;2023-05-07T12:33:12;5.97;;;5.57;;
13331;SDS011;6735;51.456;12.626;2023-05-07T12:35:47;6.17;;;5.67;;
13331;SDS011;6735;51.456;12.626;2023-05-07T12:38:13;5.60;;;5.20;;
13331;SDS011;6735;51.456;12.626;2023-05-07T12:40:44;6.33;;;5.70;;
13331;SDS011;6735;51.456;12.626;2023-05-07T12:43:18;6.33;;;5.83;;
13331;SDS011;6735;51.456;12.626;2023-05-07T12:45:45;8.27;;;7.57;;
13331;SDS011;6735;51.456;12.626;2023-05-07T12:48:13;6.90;;;6.37;;
13331;SDS011;6735;51.456;12.626;2023-05-07T12:50:38;6.60;;;6.10;;
13331;SDS011;6735;51.456;12.626;2023-05-07T12:53:05;6.53;;;5.93;;
13331;SDS011;6735;51.456;12.626;2023-05-07T12:55:31;7.30;;;6.20;;
13331;SDS011;6735;51.456;12.626;2023-05-07T12:57:57;6.13;;;5.63;;
13331;SDS011;6735;51.456;12.626;2023-05-07T13:00:36;5.90;;;5.40;;
13331;SDS011;6735;51.456;12.626;2023-05-07T13:03:02;5.17;;;4.67;;
13331;SDS011;6735;51.456;12.626;2023-05-07T13:05:28;5.50;;;5.10;;
13331;SDS011;6735;51.456;12.626;2023-05-07T13:07:56;5.60;;;5.20;;
13331;SDS011;6735;51.456;12.626;2023-05-07T13:10:25;5.50;;;5.10;;
13331;SDS011;6735;51.456;12.626;2023-05-07T13:12:51;6.07;;;5.67;;
13331;SDS011;6735;51.456;12.626;2023-05-07T13:15:17;5.10;;;4.70;;
13331;SDS011;6735;51.456;12.626;2023-05-07T13:17:43;5.33;;;4.83;;
13331;SDS011;6735;51.456;12.626;2023-05-07T13:20:09;5.77;;;5.37;;
13331;SDS011;6735;51.456;12.626;2023-05-07T13:22:36;5.73;;;5.17;;
13331;SDS011;6735;51.456;12.626;2023-05-07T13:25:02;5.60;;;5.20;;
13331;SDS011;6735;51.456;12.626;2023-05-07T13:27:27;5.40;;;5.00;;
13331;SDS011;6735;51.456;12.626;2023-05-07T13:29:55;5.60;;;5.10;;
13331;SDS011;6735;51.456;12.626;2023-05-07T13:32:21;4.90;;;4.47;;
13331;SDS011;6735;51.456;12.626;2023-05-07T13:34:46;5.40;;;4.80;;
13331;SDS011;6735;51.456;12.626;2023-05-07T13:37:12;5.20;;;4.70;;
13331;SDS011;6735;51.456;12.626;2023-05-07T13:39:37;4.73;;;4.43;;
13331;SDS011;6735;51.456;12.626;2023-05-07T13:42:03;4.93;;;4.40;;
13331;SDS011;6735;51.456;12.626;2023-05-07T13:44:28;4.30;;;3.93;;
13331;SDS011;6735;51.456;12.626;2023-05-07T13:46:53;3.87;;;3.43;;
13331;SDS011;6735;51.456;12.626;2023-05-07T13:49:19;3.70;;;3.47;;
13331;SDS011;6735;51.456;12.626;2023-05-07T13:51:44;3.47;;;3.17;;
13331;SDS011;6735;51.456;12.626;2023-05-07T13:54:10;3.70;;;3.40;;
13331;SDS011;6735;51.456;12.626;2023-05-07T13:56:36;7.20;;;3.73;;
13331;SDS011;6735;51.456;12.626;2023-05-07T13:59:01;3.83;;;3.53;;
13331;SDS011;6735;51.456;12.626;2023-05-07T14:01:27;3.90;;;3.53;;
13331;SDS011;6735;51.456;12.626;2023-05-07T14:03:52;3.97;;;3.67;;
13331;SDS011;6735;51.456;12.626;2023-05-07T14:06:18;3.30;;;3.10;;
13331;SDS011;6735;51.456;12.626;2023-05-07T14:08:43;3.93;;;3.40;;
13331;SDS011;6735;51.456;12.626;2023-05-07T14:11:09;3.73;;;3.37;;
13331;SDS011;6735;51.456;12.626;2023-05-07T14:13:34;3.63;;;3.10;;
13331;SDS011;6735;51.456;12.626;2023-05-07T14:16:00;3.70;;;3.40;;
13331;SDS011;6735;51.456;12.626;2023-05-07T14:18:26;6.53;;;5.30;;
13331;SDS011;6735;51.456;12.626;2023-05-07T14:20:53;4.83;;;3.70;;
13331;SDS011;6735;51.456;12.626;2023-05-07T14:23:19;4.03;;;3.73;;
13331;SDS011;6735;51.456;12.626;2023-05-07T14:25:47;3.87;;;3.50;;
13331;SDS011;6735;51.456;12.626;2023-05-07T14:28:12;4.40;;;3.63;;
13331;SDS011;6735;51.456;12.626;2023-05-07T14:30:38;3.83;;;3.53;;
13331;SDS011;6735;51.456;12.626;2023-05-07T14:33:04;4.00;;;3.70;;
13331;SDS011;6735;51.456;12.626;2023-05-07T14:35:29;4.20;;;3.90;;
13331;SDS011;6735;51.456;12.626;2023-05-07T14:37:55;4.97;;;4.47;;